createdAt,value
2022-09-06T00:02:24.099Z,2.90
2022-09-06T00:05:11.546Z,2.33
2022-09-06T00:07:59.671Z,2.60
2022-09-06T00:10:47.019Z,2.90
2022-09-06T00:13:36.479Z,2.20
2022-09-06T00:16:30.255Z,2.60
2022-09-06T00:19:20.373Z,2.72
2022-09-06T00:22:07.829Z,2.40
2022-09-06T00:24:56.846Z,3.05
2022-09-06T00:27:46.683Z,2.15
2022-09-06T00:30:37.064Z,2.70
2022-09-06T00:33:28.806Z,2.55
2022-09-06T00:36:18.618Z,2.50
2022-09-06T00:39:08.259Z,2.90
2022-09-06T00:41:57.455Z,2.72
2022-09-06T00:44:47.255Z,2.45
2022-09-06T00:47:37.301Z,2.90
2022-09-06T00:50:28.769Z,2.83
2022-09-06T00:53:18.158Z,2.53
2022-09-06T00:56:08.883Z,2.05
2022-09-06T00:58:58.383Z,2.65
2022-09-06T01:01:48.040Z,2.72
2022-09-06T01:04:38.823Z,2.70
2022-09-06T01:07:33.987Z,2.60
2022-09-06T01:10:32.440Z,3.03
2022-09-06T01:13:28.323Z,3.60
2022-09-06T01:16:24.290Z,3.75
2022-09-06T01:19:30.790Z,3.58
2022-09-06T01:22:23.610Z,3.90
2022-09-06T01:25:25.475Z,3.50
2022-09-06T01:28:22.856Z,3.88
2022-09-06T01:31:14.986Z,3.90
2022-09-06T01:34:12.668Z,4.07
2022-09-06T01:37:11.074Z,3.92
2022-09-06T01:39:58.184Z,4.38
2022-09-06T01:42:46.214Z,4.13
2022-09-06T01:45:41.324Z,5.32
2022-09-06T01:48:33.513Z,4.90
2022-09-06T01:51:25.597Z,4.20
2022-09-06T01:54:20.189Z,4.32
2022-09-06T01:57:13.691Z,4.20
2022-09-06T02:00:08.177Z,4.55
2022-09-06T02:03:03.198Z,4.47
2022-09-06T02:05:52.572Z,4.70
2022-09-06T02:08:42.380Z,4.43
2022-09-06T02:11:30.494Z,4.63
2022-09-06T02:14:19.110Z,4.80
2022-09-06T02:17:06.994Z,4.68
2022-09-06T02:19:57.941Z,4.40
2022-09-06T02:22:47.327Z,4.47
2022-09-06T02:25:36.788Z,4.22
2022-09-06T02:28:23.818Z,3.95
2022-09-06T02:31:13.322Z,4.60
2022-09-06T02:34:01.499Z,4.32
2022-09-06T02:36:49.987Z,4.78
2022-09-06T02:39:37.209Z,4.63
2022-09-06T02:42:24.200Z,5.00
2022-09-06T02:45:11.817Z,4.68
2022-09-06T02:47:58.758Z,5.13
2022-09-06T02:50:45.715Z,5.53
2022-09-06T02:53:34.530Z,5.38
2022-09-06T02:56:21.848Z,5.25
2022-09-06T02:59:09.439Z,5.32
2022-09-06T03:01:57.173Z,6.03
2022-09-06T03:04:44.477Z,6.03
2022-09-06T03:07:31.464Z,6.40
2022-09-06T03:10:20.139Z,6.63
2022-09-06T03:13:07.359Z,6.70
2022-09-06T03:15:56.025Z,6.30
2022-09-06T03:18:43.408Z,6.72
2022-09-06T03:21:30.683Z,7.43
2022-09-06T03:24:17.942Z,5.95
2022-09-06T03:27:06.625Z,6.25
2022-09-06T03:29:54.113Z,5.60
2022-09-06T03:32:41.568Z,6.20
2022-09-06T03:35:28.996Z,6.03
2022-09-06T03:38:16.510Z,5.28
2022-09-06T03:41:04.005Z,5.75
2022-09-06T03:43:53.055Z,6.47
2022-09-06T03:46:40.190Z,5.95
2022-09-06T03:49:27.893Z,6.40
2022-09-06T03:52:14.982Z,6.65
2022-09-06T03:55:02.879Z,6.43
2022-09-06T03:57:51.151Z,6.40
2022-09-06T04:00:39.541Z,6.38
2022-09-06T04:03:26.960Z,6.68
2022-09-06T04:06:14.311Z,6.72
2022-09-06T04:09:01.193Z,7.47
2022-09-06T04:11:48.169Z,7.28
2022-09-06T04:14:35.634Z,7.15
2022-09-06T04:17:24.411Z,6.97
2022-09-06T04:20:11.993Z,7.28
2022-09-06T04:22:59.351Z,7.88
2022-09-06T04:25:47.254Z,7.03
2022-09-06T04:28:34.066Z,6.65
2022-09-06T04:31:23.600Z,7.72
2022-09-06T04:34:12.006Z,7.13
2022-09-06T04:36:58.919Z,6.57
2022-09-06T04:39:46.278Z,6.93
2022-09-06T04:42:33.454Z,7.95
2022-09-06T04:45:20.383Z,7.47
2022-09-06T04:48:07.384Z,6.97
2022-09-06T04:50:55.882Z,7.75
2022-09-06T04:53:43.075Z,7.95
2022-09-06T04:56:30.499Z,7.15
2022-09-06T04:59:17.500Z,7.32
2022-09-06T05:02:04.743Z,8.88
2022-09-06T05:04:52.275Z,7.53
2022-09-06T05:07:40.913Z,7.00
2022-09-06T05:10:28.529Z,7.25
2022-09-06T05:13:15.530Z,7.65
2022-09-06T05:16:02.918Z,6.22
2022-09-06T05:18:49.767Z,7.25
2022-09-06T05:21:36.854Z,6.43
2022-09-06T05:24:25.121Z,6.15
2022-09-06T05:27:12.763Z,6.57
2022-09-06T05:30:00.313Z,6.25
2022-09-06T05:32:47.498Z,6.43
2022-09-06T05:35:34.375Z,6.30
2022-09-06T05:38:21.257Z,7.55
2022-09-06T05:41:10.067Z,6.10
2022-09-06T05:43:57.028Z,5.65
2022-09-06T05:46:45.247Z,6.28
2022-09-06T05:49:33.302Z,5.55
2022-09-06T05:52:20.162Z,6.07
2022-09-06T05:55:08.140Z,5.50
2022-09-06T05:57:57.247Z,5.15
2022-09-06T06:00:44.408Z,5.53
2022-09-06T06:03:31.616Z,6.05
2022-09-06T06:06:18.907Z,5.72
2022-09-06T06:09:05.937Z,6.22
2022-09-06T06:11:53.115Z,5.72
2022-09-06T06:14:42.012Z,6.60
2022-09-06T06:17:29.612Z,6.72
2022-09-06T06:20:17.117Z,5.70
2022-09-06T06:23:04.414Z,6.18
2022-09-06T06:25:51.972Z,5.78
2022-09-06T06:28:39.504Z,5.80
2022-09-06T06:31:27.870Z,5.68
2022-09-06T06:34:16.460Z,5.97
2022-09-06T06:37:03.997Z,5.40
2022-09-06T06:39:51.105Z,5.18
2022-09-06T06:42:38.227Z,6.45
2022-09-06T06:45:25.206Z,5.63
2022-09-06T06:48:13.975Z,5.00
2022-09-06T06:51:01.037Z,4.80
2022-09-06T06:53:49.021Z,4.95
2022-09-06T06:56:37.442Z,4.47
2022-09-06T06:59:24.511Z,4.30
2022-09-06T07:02:12.716Z,4.32
2022-09-06T07:05:02.158Z,3.83
2022-09-06T07:07:49.376Z,3.88
2022-09-06T07:10:37.381Z,3.85
2022-09-06T07:13:24.671Z,3.88
2022-09-06T07:16:13.700Z,3.95
2022-09-06T07:19:01.309Z,3.47
2022-09-06T07:21:50.565Z,3.20
2022-09-06T07:24:37.384Z,3.33
2022-09-06T07:30:32.678Z,3.42
2022-09-06T07:33:20.189Z,3.50
2022-09-06T07:36:08.469Z,3.30
2022-09-06T07:38:57.156Z,3.10
2022-09-06T07:41:44.472Z,2.70
2022-09-06T07:44:31.796Z,3.20
2022-09-06T07:53:36.158Z,2.50
2022-09-06T07:56:25.297Z,2.80
2022-09-06T07:59:12.633Z,2.30
2022-09-06T08:01:59.751Z,2.03
2022-09-06T08:04:51.465Z,2.28
2022-09-06T08:07:39.027Z,2.10
2022-09-06T08:10:27.163Z,1.70
2022-09-06T08:13:15.540Z,1.95
2022-09-06T08:16:03.494Z,1.67
2022-09-06T08:18:51.930Z,2.00
2022-09-06T08:21:39.473Z,2.15
2022-09-06T08:24:26.936Z,2.05
2022-09-06T08:27:14.497Z,2.00
2022-09-06T08:30:03.758Z,1.85
2022-09-06T08:32:52.068Z,1.67
2022-09-06T08:35:39.344Z,1.80
2022-09-06T08:38:26.579Z,1.35
2022-09-06T08:41:19.380Z,1.52
2022-09-06T08:47:17.399Z,1.60
2022-09-06T08:50:06.639Z,1.35
2022-09-06T08:53:17.162Z,1.85
2022-09-06T08:56:06.368Z,1.40
2022-09-06T08:58:59.626Z,1.70
2022-09-06T09:01:50.128Z,1.35
2022-09-06T09:04:39.962Z,1.73
2022-09-06T09:07:37.571Z,1.50
2022-09-06T09:10:27.344Z,1.58
2022-09-06T09:13:18.935Z,1.50
2022-09-06T09:16:06.937Z,1.70
2022-09-06T09:18:55.215Z,1.88
2022-09-06T09:21:44.940Z,1.50
2022-09-06T09:24:32.364Z,1.65
2022-09-06T09:27:21.048Z,1.88
2022-09-06T09:33:23.251Z,1.70
2022-09-06T09:36:12.334Z,1.60
2022-09-06T09:39:01.278Z,1.60
2022-09-06T09:41:51.678Z,1.60
2022-09-06T09:44:43.382Z,1.52
2022-09-06T09:47:31.306Z,1.58
2022-09-06T09:50:26.411Z,1.70
2022-09-06T09:53:14.946Z,1.50
2022-09-06T09:56:03.617Z,1.70
2022-09-06T09:58:50.571Z,1.48
2022-09-06T10:01:39.606Z,1.50
2022-09-06T10:04:46.100Z,2.05
2022-09-06T10:07:34.141Z,1.80
2022-09-06T10:10:22.418Z,2.00
2022-09-06T10:13:14.548Z,1.65
2022-09-06T10:16:03.274Z,1.67
2022-09-06T10:18:52.752Z,1.70
2022-09-06T10:21:39.716Z,1.60
2022-09-06T10:24:29.467Z,1.50
2022-09-06T10:27:20.164Z,1.98
2022-09-06T10:30:09.526Z,1.70
2022-09-06T10:33:01.411Z,1.30
2022-09-06T10:35:48.323Z,1.98
2022-09-06T10:38:38.900Z,1.90
2022-09-06T10:41:32.862Z,2.03
2022-09-06T10:44:27.668Z,1.73
2022-09-06T10:47:16.710Z,1.75
2022-09-06T10:50:05.139Z,1.58
2022-09-06T10:52:53.355Z,1.50
2022-09-06T10:55:42.906Z,1.60
2022-09-06T11:01:43.478Z,1.73
2022-09-06T11:10:52.811Z,1.88
2022-09-06T11:13:40.151Z,1.77
2022-09-06T11:16:29.767Z,1.63
2022-09-06T11:19:19.659Z,1.60
2022-09-06T11:22:13.366Z,1.80
2022-09-06T11:25:23.350Z,1.73
2022-09-06T11:28:12.502Z,1.60
2022-09-06T11:30:59.923Z,1.60
2022-09-06T11:33:49.412Z,1.75
2022-09-06T11:36:38.002Z,1.73
2022-09-06T11:42:42.427Z,1.35
2022-09-06T11:45:40.534Z,1.65
2022-09-06T11:48:34.379Z,1.70
2022-09-06T11:51:35.156Z,1.55
2022-09-06T11:54:25.478Z,1.75
2022-09-06T11:57:16.315Z,1.90
2022-09-06T12:00:06.936Z,1.90
2022-09-06T12:02:54.323Z,2.03
2022-09-06T12:05:55.999Z,1.90
2022-09-06T12:08:43.565Z,2.13
2022-09-06T12:11:35.490Z,1.83
2022-09-06T12:14:30.939Z,1.88
2022-09-06T12:17:22.263Z,1.60
2022-09-06T12:20:09.525Z,1.88
2022-09-06T12:22:56.746Z,2.08
2022-09-06T12:25:56.286Z,2.20
2022-09-06T12:28:47.194Z,2.40
2022-09-06T12:31:38.839Z,2.03
2022-09-06T12:34:26.603Z,2.38
2022-09-06T12:37:13.698Z,2.08
2022-09-06T12:40:00.944Z,2.13
2022-09-06T12:42:48.267Z,2.40
2022-09-06T12:45:35.139Z,1.88
2022-09-06T12:48:31.134Z,2.80
2022-09-06T12:51:20.403Z,2.20
2022-09-06T12:54:16.439Z,2.40
2022-09-06T12:57:13.510Z,2.30
2022-09-06T13:00:00.690Z,2.30
2022-09-06T13:02:55.236Z,2.53
2022-09-06T13:05:45.202Z,2.25
2022-09-06T13:08:34.552Z,2.00
2022-09-06T13:11:24.456Z,2.58
2022-09-06T13:14:14.420Z,2.00
2022-09-06T13:17:02.127Z,2.47
2022-09-06T13:19:49.593Z,2.33
2022-09-06T13:22:43.505Z,2.40
2022-09-06T13:25:30.404Z,2.20
2022-09-06T13:28:25.052Z,2.08
2022-09-06T13:31:12.979Z,2.33
2022-09-06T13:34:00.563Z,2.60
2022-09-06T13:36:49.931Z,2.70
2022-09-06T13:39:38.899Z,2.85
2022-09-06T13:42:26.905Z,2.67
2022-09-06T13:45:19.204Z,2.80
2022-09-06T13:48:28.044Z,2.78
2022-09-06T13:51:13.402Z,2.63
2022-09-06T13:54:07.669Z,2.45
2022-09-06T13:56:56.551Z,2.55
2022-09-06T13:59:43.308Z,2.28
2022-09-06T14:02:30.199Z,2.47
2022-09-06T14:05:17.883Z,2.50
2022-09-06T14:08:04.882Z,2.78
2022-09-06T14:10:51.814Z,3.05
2022-09-06T14:13:40.282Z,2.55
2022-09-06T14:16:27.495Z,2.42
2022-09-06T14:19:14.722Z,2.42
2022-09-06T14:22:02.199Z,2.42
2022-09-06T14:24:49.741Z,2.90
2022-09-06T14:27:36.895Z,2.67
2022-09-06T14:30:25.308Z,2.83
2022-09-06T14:33:12.396Z,2.80
2022-09-06T14:35:59.307Z,2.22
2022-09-06T14:38:46.634Z,2.08
2022-09-06T14:41:33.844Z,2.38
2022-09-06T14:44:20.930Z,2.45
2022-09-06T14:47:09.505Z,2.45
2022-09-06T14:49:56.395Z,2.20
2022-09-06T14:52:43.477Z,2.30
2022-09-06T14:55:30.942Z,2.72
2022-09-06T14:58:18.086Z,2.03
2022-09-06T15:01:09.208Z,2.80
2022-09-06T15:03:58.246Z,2.63
2022-09-06T15:06:47.247Z,2.17
2022-09-06T15:09:34.066Z,2.35
2022-09-06T15:12:21.226Z,2.17
2022-09-06T15:15:09.019Z,1.92
2022-09-06T15:17:56.716Z,1.90
2022-09-06T15:20:46.382Z,2.38
2022-09-06T15:23:33.314Z,2.20
2022-09-06T15:26:20.571Z,2.03
2022-09-06T15:29:07.737Z,1.80
2022-09-06T15:31:54.846Z,1.85
2022-09-06T15:34:42.163Z,1.70
2022-09-06T15:37:30.441Z,2.13
2022-09-06T15:40:17.621Z,2.33
2022-09-06T15:43:04.825Z,2.42
2022-09-06T15:45:51.880Z,2.22
2022-09-06T15:48:41.803Z,2.28
2022-09-06T15:51:29.259Z,2.20
2022-09-06T15:54:18.295Z,2.08
2022-09-06T15:57:05.861Z,2.00
2022-09-06T15:59:52.946Z,2.10
2022-09-06T16:02:40.166Z,2.10
2022-09-06T16:08:34.115Z,2.08
2022-09-06T16:11:22.420Z,2.55
2022-09-06T16:14:11.498Z,2.30
2022-09-06T16:16:58.818Z,2.10
2022-09-06T16:19:46.290Z,2.47
2022-09-06T16:22:34.067Z,5.38
2022-09-06T16:25:21.310Z,2.78
2022-09-06T16:28:09.523Z,2.22
2022-09-06T16:30:56.985Z,2.40
2022-09-06T16:33:45.628Z,2.05
2022-09-06T16:36:32.817Z,2.40
2022-09-06T16:39:19.698Z,2.03
2022-09-06T16:42:07.352Z,2.05
2022-09-06T16:44:55.992Z,2.10
2022-09-06T16:47:42.951Z,2.08
2022-09-06T16:50:30.151Z,1.80
2022-09-06T16:53:20.338Z,2.05
2022-09-06T16:56:09.173Z,2.10
2022-09-06T16:58:57.403Z,1.85
2022-09-06T17:01:46.803Z,2.00
2022-09-06T17:04:34.190Z,2.30
2022-09-06T17:07:21.162Z,2.22
2022-09-06T17:10:08.608Z,1.92
2022-09-06T17:12:55.963Z,2.00
2022-09-06T17:16:16.465Z,2.47
2022-09-06T17:19:08.738Z,1.98
2022-09-06T17:21:56.046Z,2.13
2022-09-06T17:24:42.897Z,1.88
2022-09-06T17:27:30.599Z,2.10
2022-09-06T17:30:17.790Z,2.00
2022-09-06T17:33:04.948Z,1.85
2022-09-06T17:35:53.471Z,2.22
2022-09-06T17:38:40.858Z,2.10
2022-09-06T17:41:29.629Z,2.47
2022-09-06T17:44:18.077Z,2.03
2022-09-06T17:47:13.718Z,2.10
2022-09-06T17:50:01.500Z,1.80
2022-09-06T17:52:53.567Z,2.20
2022-09-06T17:55:40.633Z,2.20
2022-09-06T17:58:27.731Z,2.10
2022-09-06T18:01:15.375Z,2.45
2022-09-06T18:04:02.244Z,2.33
2022-09-06T18:06:49.369Z,1.75
2022-09-06T18:09:38.417Z,2.38
2022-09-06T18:12:26.735Z,2.30
2022-09-06T18:15:13.567Z,2.13
2022-09-06T18:18:00.697Z,2.45
2022-09-06T18:20:47.826Z,2.33
2022-09-06T18:23:35.100Z,2.00
2022-09-06T18:26:23.964Z,2.10
2022-09-06T18:29:14.656Z,2.45
2022-09-06T18:32:01.954Z,2.60
2022-09-06T18:34:49.213Z,2.17
2022-09-06T18:37:36.088Z,2.38
2022-09-06T18:40:23.047Z,2.20
2022-09-06T18:43:11.697Z,2.38
2022-09-06T18:46:01.694Z,2.35
2022-09-06T18:48:49.072Z,2.85
2022-09-06T18:51:36.034Z,3.03
2022-09-06T18:54:23.172Z,2.42
2022-09-06T18:57:10.394Z,2.88
2022-09-06T18:59:58.692Z,2.67
2022-09-06T19:02:45.774Z,2.33
2022-09-06T19:05:35.571Z,2.78
2022-09-06T19:08:22.831Z,2.90
2022-09-06T19:11:11.714Z,2.60
2022-09-06T19:13:59.277Z,2.30
2022-09-06T19:16:50.033Z,2.55
2022-09-06T19:19:37.169Z,2.55
2022-09-06T19:22:24.060Z,2.80
2022-09-06T19:25:12.114Z,2.50
2022-09-06T19:27:59.250Z,2.65
2022-09-06T19:30:46.103Z,3.03
2022-09-06T19:33:36.343Z,2.55
2022-09-06T19:36:24.664Z,2.60
2022-09-06T19:39:14.253Z,2.97
2022-09-06T19:42:01.366Z,2.97
2022-09-06T19:44:49.347Z,2.83
2022-09-06T19:47:36.179Z,2.80
2022-09-06T19:50:24.532Z,2.45
2022-09-06T19:53:11.597Z,2.90
2022-09-06T19:55:58.921Z,2.28
2022-09-06T19:58:46.426Z,2.80
2022-09-06T20:01:34.814Z,2.70
2022-09-06T20:04:21.922Z,2.65
2022-09-06T20:07:10.446Z,2.42
2022-09-06T20:09:57.709Z,3.15
2022-09-06T20:12:45.046Z,2.58
2022-09-06T20:15:33.639Z,2.92
2022-09-06T20:18:21.399Z,2.65
2022-09-06T20:21:08.855Z,2.90
2022-09-06T20:23:58.216Z,2.72
2022-09-06T20:26:45.434Z,2.95
2022-09-06T20:29:32.407Z,3.15
2022-09-06T20:32:19.446Z,3.30
2022-09-06T20:35:08.250Z,3.90
2022-09-06T20:37:55.182Z,3.33
2022-09-06T20:40:43.907Z,3.97
2022-09-06T20:43:33.853Z,3.53
2022-09-06T20:46:24.065Z,2.92
2022-09-06T20:49:12.226Z,3.20
2022-09-06T20:51:59.413Z,3.00
2022-09-06T20:54:46.617Z,3.17
2022-09-06T20:57:40.466Z,2.58
2022-09-06T21:03:17.607Z,3.25
2022-09-06T21:06:05.806Z,2.90
2022-09-06T21:08:52.926Z,2.80
2022-09-06T21:11:40.014Z,3.28
2022-09-06T21:14:28.975Z,2.85
2022-09-06T21:17:15.784Z,2.60
2022-09-06T21:20:03.099Z,2.55
2022-09-06T21:22:50.401Z,1.92
2022-09-06T21:25:37.394Z,2.10
2022-09-06T21:28:24.797Z,2.35
2022-09-06T21:31:14.182Z,2.20
2022-09-06T21:34:03.257Z,2.35
2022-09-06T21:36:50.166Z,2.50
2022-09-06T21:39:37.005Z,2.25
2022-09-06T21:42:24.183Z,2.05
2022-09-06T21:45:11.838Z,2.28
2022-09-06T21:48:00.258Z,2.40
2022-09-06T21:50:47.958Z,2.22
2022-09-06T21:53:35.421Z,2.63
2022-09-06T21:56:23.786Z,2.40
2022-09-06T21:59:10.910Z,2.17
2022-09-06T22:01:58.508Z,2.60
2022-09-06T22:04:47.154Z,2.35
2022-09-06T22:07:36.556Z,2.30
2022-09-06T22:10:24.182Z,2.40
2022-09-06T22:13:11.623Z,2.63
2022-09-06T22:15:58.834Z,2.33
2022-09-06T22:18:46.308Z,2.28
2022-09-06T22:21:34.917Z,2.83
2022-09-06T22:24:22.098Z,2.40
2022-09-06T22:27:09.459Z,2.20
2022-09-06T22:29:56.939Z,2.70
2022-09-06T22:32:43.995Z,2.20
2022-09-06T22:35:31.199Z,2.47
2022-09-06T22:38:19.863Z,2.55
2022-09-06T22:41:07.308Z,2.22
2022-09-06T22:43:54.574Z,2.28
2022-09-06T22:46:41.889Z,2.00
2022-09-06T22:49:28.890Z,2.20
2022-09-06T22:52:15.746Z,2.20
2022-09-06T22:55:04.279Z,1.85
2022-09-06T22:57:51.207Z,1.70
2022-09-06T23:00:38.682Z,2.00
2022-09-06T23:03:26.170Z,1.92
2022-09-06T23:06:13.689Z,2.25
2022-09-06T23:09:01.060Z,2.30
2022-09-06T23:11:49.401Z,2.00
2022-09-06T23:14:36.701Z,2.30
2022-09-06T23:17:23.744Z,2.17
2022-09-06T23:20:10.544Z,2.20
2022-09-06T23:22:58.002Z,2.20
2022-09-06T23:25:45.222Z,2.58
2022-09-06T23:28:33.719Z,2.42
2022-09-06T23:31:20.893Z,2.10
2022-09-06T23:34:08.071Z,1.95
2022-09-06T23:37:00.157Z,2.17
2022-09-06T23:39:47.192Z,3.03
2022-09-06T23:42:34.378Z,1.40
2022-09-06T23:45:22.802Z,1.60
2022-09-06T23:48:09.650Z,1.27
2022-09-06T23:50:56.850Z,0.90
2022-09-06T23:53:44.019Z,0.82
2022-09-06T23:56:31.174Z,0.90
2022-09-06T23:59:18.200Z,0.82
